Time;durP1;ratioP1;P1;durP2;ratioP2;P2;SDS_P1;SDS_P2;PMS_P1;PMS_P2;Temp;Humidity;BMP_temperature;BMP_pressure;BME280_temperature;BME280_humidity;BME280_pressure;Samples;Min_cycle;Max_cycle;Signal;HPM_P1;HPM_P2
2021/12/27 00:00:59;;;;;;;27.73;14.40;;;;;;;;;;5005311;28;20552;-66
2021/12/27 00:03:28;;;;;;;21.37;12.83;;;;;;;;;;4997054;28;20562;-66
2021/12/27 00:05:56;;;;;;;20.80;12.73;;;;;;;;;;4997269;28;20573;-66
2021/12/27 00:08:24;;;;;;;21.73;11.50;;;;;;;;;;4997408;28;20578;-66
2021/12/27 00:10:52;;;;;;;25.10;12.70;;;;;;;;;;5000239;28;20212;-66
2021/12/27 00:13:20;;;;;;;21.37;11.60;;;;;;;;;;5001700;28;20205;-66
2021/12/27 00:15:48;;;;;;;20.63;11.73;;;;;;;;;;4996996;28;20207;-66
2021/12/27 00:18:17;;;;;;;25.10;11.93;;;;;;;;;;4996947;28;20234;-66
2021/12/27 00:20:45;;;;;;;18.30;10.80;;;;;;;;;;4997096;28;20606;-66
2021/12/27 00:23:13;;;;;;;16.70;9.90;;;;;;;;;;5013907;28;20220;-66
2021/12/27 00:25:41;;;;;;;23.13;11.07;;;;;;;;;;5012520;28;20566;-66
2021/12/27 00:28:09;;;;;;;22.67;10.53;;;;;;;;;;4998067;28;20200;-66
2021/12/27 00:30:38;;;;;;;21.80;11.10;;;;;;;;;;4997383;28;20579;-66
2021/12/27 00:33:08;;;;;;;17.43;10.53;;;;;;;;;;5004324;28;20208;-66
2021/12/27 00:35:37;;;;;;;22.80;10.63;;;;;;;;;;5016941;28;20579;-66
2021/12/27 00:38:05;;;;;;;15.90;9.23;;;;;;;;;;5017286;28;20215;-66
2021/12/27 00:40:33;;;;;;;24.60;10.80;;;;;;;;;;5017272;28;20212;-66
2021/12/27 00:43:01;;;;;;;17.63;9.17;;;;;;;;;;5016924;28;20215;-66
2021/12/27 00:45:29;;;;;;;28.10;11.13;;;;;;;;;;5016599;28;20291;-66
2021/12/27 00:47:57;;;;;;;16.47;9.87;;;;;;;;;;5016651;28;20629;-66
2021/12/27 00:50:25;;;;;;;17.97;9.73;;;;;;;;;;5017210;28;20666;-66
2021/12/27 00:52:55;;;;;;;16.73;9.20;;;;;;;;;;5016847;28;20727;-66
2021/12/27 00:55:23;;;;;;;18.03;9.97;;;;;;;;;;5016981;28;20215;-66
2021/12/27 00:57:53;;;;;;;12.87;8.40;;;;;;;;;;4997019;28;20754;-66
2021/12/27 01:00:23;;;;;;;17.13;10.60;;;;;;;;;;4996875;28;20235;-66
2021/12/27 01:02:53;;;;;;;17.93;10.73;;;;;;;;;;4997326;28;20225;-66
2021/12/27 01:05:22;;;;;;;18.50;10.17;;;;;;;;;;4996884;28;20229;-66
2021/12/27 01:07:50;;;;;;;14.33;9.73;;;;;;;;;;4997189;28;20255;-66
2021/12/27 01:10:58;;;;;;;17.60;9.67;;;;;;;;;;4997120;28;20563;-66
2021/12/27 01:13:38;;;;;;;16.93;9.00;;;;;;;;;;4997170;28;20220;-66
2021/12/27 01:16:14;;;;;;;19.67;9.93;;;;;;;;;;4996787;28;20319;-66
2021/12/27 01:18:43;;;;;;;17.87;9.63;;;;;;;;;;4997111;28;20212;-66
2021/12/27 01:21:11;;;;;;;17.20;10.57;;;;;;;;;;4996891;28;20217;-66
2021/12/27 01:23:39;;;;;;;15.50;9.77;;;;;;;;;;5006081;28;20259;-66
2021/12/27 01:26:09;;;;;;;17.90;10.47;;;;;;;;;;5016219;28;20737;-66
2021/12/27 01:28:37;;;;;;;21.90;10.63;;;;;;;;;;5016540;28;20213;-66
2021/12/27 01:31:05;;;;;;;25.00;8.87;;;;;;;;;;5016013;28;20204;-66
2021/12/27 01:33:33;;;;;;;21.50;11.13;;;;;;;;;;5016336;28;20655;-66
2021/12/27 01:36:02;;;;;;;18.80;10.60;;;;;;;;;;5016025;28;20228;-66
2021/12/27 01:38:30;;;;;;;17.27;9.63;;;;;;;;;;5016061;28;20208;-66
2021/12/27 01:40:58;;;;;;;16.93;10.50;;;;;;;;;;5016076;28;20212;-66
2021/12/27 01:43:28;;;;;;;19.30;10.67;;;;;;;;;;5016305;28;20212;-66
2021/12/27 01:45:57;;;;;;;21.10;11.57;;;;;;;;;;5015852;28;20493;-66
2021/12/27 01:48:28;;;;;;;18.47;10.63;;;;;;;;;;5016122;28;20212;-66
2021/12/27 01:50:58;;;;;;;18.23;10.33;;;;;;;;;;5015781;28;20447;-66
2021/12/27 01:53:27;;;;;;;15.00;9.37;;;;;;;;;;5015668;28;21184;-66
2021/12/27 01:55:56;;;;;;;15.23;10.10;;;;;;;;;;5011938;28;20483;-66
2021/12/27 01:58:24;;;;;;;16.57;10.60;;;;;;;;;;4996404;28;20463;-66
2021/12/27 02:00:54;;;;;;;14.53;9.60;;;;;;;;;;4996009;28;20448;-66
2021/12/27 02:03:23;;;;;;;13.63;9.30;;;;;;;;;;4995904;28;20476;-66
2021/12/27 02:05:51;;;;;;;14.00;8.73;;;;;;;;;;4996280;28;20488;-66
2021/12/27 02:08:20;;;;;;;15.40;10.10;;;;;;;;;;4996332;28;20219;-66
2021/12/27 02:10:49;;;;;;;13.23;8.30;;;;;;;;;;4996242;28;20559;-66
2021/12/27 02:13:17;;;;;;;17.67;9.80;;;;;;;;;;4996045;28;20219;-66
2021/12/27 02:15:45;;;;;;;16.73;10.13;;;;;;;;;;4995929;28;20448;-66
2021/12/27 02:18:15;;;;;;;13.97;9.37;;;;;;;;;;4995811;28;20444;-66
2021/12/27 02:20:44;;;;;;;16.97;9.63;;;;;;;;;;4995997;28;20211;-66
2021/12/27 02:23:16;;;;;;;16.90;10.00;;;;;;;;;;5001670;28;20443;-66
2021/12/27 02:25:44;;;;;;;18.77;10.97;;;;;;;;;;5015614;28;20487;-66
2021/12/27 02:28:13;;;;;;;17.77;10.10;;;;;;;;;;5002464;28;20448;-66
2021/12/27 02:30:41;;;;;;;13.60;9.63;;;;;;;;;;5015170;28;20212;-66
2021/12/27 02:33:10;;;;;;;15.07;9.50;;;;;;;;;;5015144;28;20811;-66
2021/12/27 02:35:39;;;;;;;17.40;10.60;;;;;;;;;;5015354;28;20447;-66
2021/12/27 02:38:10;;;;;;;17.80;10.97;;;;;;;;;;5015358;28;20216;-66
2021/12/27 02:40:40;;;;;;;19.70;10.93;;;;;;;;;;5015355;28;20212;-66
2021/12/27 02:43:09;;;;;;;18.33;11.93;;;;;;;;;;5015069;28;20207;-66
2021/12/27 02:45:37;;;;;;;16.23;10.83;;;;;;;;;;5014549;28;20225;-66
2021/12/27 02:48:06;;;;;;;16.00;11.53;;;;;;;;;;5015073;28;20204;-66
2021/12/27 02:50:35;;;;;;;17.73;11.87;;;;;;;;;;5014433;28;20217;-66
2021/12/27 02:53:04;;;;;;;22.00;12.63;;;;;;;;;;5014783;28;20266;-66
2021/12/27 02:55:33;;;;;;;26.03;15.37;;;;;;;;;;5014100;28;20296;-66
2021/12/27 02:58:01;;;;;;;27.00;17.30;;;;;;;;;;4995758;28;20213;-66
2021/12/27 03:00:50;;;;;;;30.67;17.63;;;;;;;;;;5014921;28;20211;-66
2021/12/27 03:03:19;;;;;;;24.80;15.07;;;;;;;;;;5014948;28;20212;-66
2021/12/27 03:05:47;;;;;;;26.90;13.43;;;;;;;;;;5015035;28;20287;-66
2021/12/27 03:08:16;;;;;;;25.00;14.37;;;;;;;;;;5014788;28;20320;-66
2021/12/27 03:10:46;;;;;;;19.73;12.37;;;;;;;;;;5014825;28;20218;-66
2021/12/27 03:13:18;;;;;;;17.67;11.27;;;;;;;;;;5014640;28;20246;-66
2021/12/27 03:15:46;;;;;;;16.87;10.47;;;;;;;;;;5014611;28;20201;-66
2021/12/27 03:18:15;;;;;;;18.13;11.30;;;;;;;;;;5014908;28;20265;-66
2021/12/27 03:20:43;;;;;;;16.40;9.73;;;;;;;;;;5015123;28;20208;-66
2021/12/27 03:23:11;;;;;;;17.93;10.50;;;;;;;;;;5014659;28;20207;-66
2021/12/27 03:25:39;;;;;;;15.23;9.70;;;;;;;;;;5014339;28;20602;-66
2021/12/27 03:28:09;;;;;;;14.43;8.83;;;;;;;;;;5014429;28;20574;-66
2021/12/27 03:30:37;;;;;;;15.73;9.93;;;;;;;;;;5014515;28;20447;-66
2021/12/27 03:33:06;;;;;;;12.57;9.83;;;;;;;;;;5014743;28;20247;-65
2021/12/27 03:35:38;;;;;;;14.03;9.07;;;;;;;;;;5014515;28;20212;-66
2021/12/27 03:38:07;;;;;;;13.10;9.07;;;;;;;;;;5014577;28;20292;-66
2021/12/27 03:40:36;;;;;;;13.33;9.10;;;;;;;;;;5014594;28;20535;-66
2021/12/27 03:43:04;;;;;;;13.37;9.17;;;;;;;;;;5014663;28;20454;-66
2021/12/27 03:45:34;;;;;;;13.57;9.60;;;;;;;;;;5013835;28;20224;-65
2021/12/27 03:48:03;;;;;;;12.47;8.83;;;;;;;;;;5014203;28;20927;-65
2021/12/27 03:50:31;;;;;;;12.27;8.47;;;;;;;;;;5014321;28;20808;-66
2021/12/27 03:52:59;;;;;;;11.47;8.30;;;;;;;;;;5014029;28;20841;-66
2021/12/27 03:55:27;;;;;;;10.60;7.50;;;;;;;;;;5014367;28;20447;-66
2021/12/27 03:58:06;;;;;;;11.17;7.77;;;;;;;;;;4994911;28;20208;-66
2021/12/27 04:00:47;;;;;;;9.80;7.77;;;;;;;;;;4994440;28;20845;-66
2021/12/27 04:03:16;;;;;;;9.57;7.33;;;;;;;;;;4996933;28;21018;-65
2021/12/27 04:05:44;;;;;;;10.47;7.37;;;;;;;;;;4997944;28;20567;-66
2021/12/27 04:08:13;;;;;;;9.90;7.43;;;;;;;;;;4997850;28;20550;-66
2021/12/27 04:10:42;;;;;;;10.80;8.33;;;;;;;;;;4997871;28;20470;-65
2021/12/27 04:13:11;;;;;;;11.77;7.90;;;;;;;;;;4998040;28;20449;-66
2021/12/27 04:15:40;;;;;;;9.67;7.50;;;;;;;;;;4997776;28;20448;-65
2021/12/27 04:18:11;;;;;;;8.57;7.23;;;;;;;;;;4997873;28;20474;-65
2021/12/27 04:20:39;;;;;;;10.50;7.73;;;;;;;;;;4997821;28;20924;-66
2021/12/27 04:23:07;;;;;;;8.63;6.90;;;;;;;;;;5002726;28;20203;-66
2021/12/27 04:25:35;;;;;;;9.83;7.67;;;;;;;;;;5017053;28;20729;-66
2021/12/27 04:28:04;;;;;;;8.83;6.80;;;;;;;;;;5017173;28;20217;-66
2021/12/27 04:30:32;;;;;;;9.10;7.33;;;;;;;;;;5017208;28;20451;-66
2021/12/27 04:33:02;;;;;;;9.37;7.13;;;;;;;;;;5017265;28;20208;-66
2021/12/27 04:35:30;;;;;;;13.63;11.23;;;;;;;;;;5017298;28;20534;-66
2021/12/27 04:37:59;;;;;;;10.03;7.30;;;;;;;;;;5017375;28;20458;-66
2021/12/27 04:40:28;;;;;;;7.87;7.03;;;;;;;;;;5016935;28;20549;-66
2021/12/27 04:42:58;;;;;;;8.53;7.20;;;;;;;;;;5017137;28;20452;-66
2021/12/27 04:45:26;;;;;;;9.13;7.63;;;;;;;;;;5016491;28;20453;-65
2021/12/27 04:47:54;;;;;;;7.73;6.90;;;;;;;;;;5017129;28;20447;-66
2021/12/27 04:50:25;;;;;;;8.83;7.53;;;;;;;;;;5017028;28;20219;-66
2021/12/27 04:52:53;;;;;;;10.53;7.17;;;;;;;;;;5016881;28;20243;-65
2021/12/27 04:55:22;;;;;;;10.27;7.63;;;;;;;;;;5016954;28;20219;-66
2021/12/27 04:57:49;;;;;;;8.50;7.40;;;;;;;;;;4997602;28;20236;-66
2021/12/27 05:00:18;;;;;;;11.93;8.10;;;;;;;;;;4996975;28;20215;-66
2021/12/27 05:02:46;;;;;;;8.27;7.40;;;;;;;;;;4996921;28;20245;-66
2021/12/27 05:05:14;;;;;;;10.80;7.93;;;;;;;;;;4997377;28;20444;-65
2021/12/27 05:07:44;;;;;;;9.03;6.90;;;;;;;;;;4997052;28;20300;-66
2021/12/27 05:10:12;;;;;;;9.00;7.60;;;;;;;;;;4997157;28;20445;-66
2021/12/27 05:12:40;;;;;;;10.07;8.10;;;;;;;;;;4996822;28;20535;-66
2021/12/27 05:15:09;;;;;;;11.27;7.60;;;;;;;;;;4996916;28;20448;-66
2021/12/27 05:17:37;;;;;;;8.13;6.93;;;;;;;;;;4996753;28;20464;-66
2021/12/27 05:20:05;;;;;;;9.90;7.83;;;;;;;;;;4996775;28;20450;-66
2021/12/27 05:22:33;;;;;;;11.83;7.37;;;;;;;;;;5009032;28;20543;-65
2021/12/27 05:25:03;;;;;;;10.10;7.63;;;;;;;;;;5012188;28;20211;-65
2021/12/27 05:27:31;;;;;;;10.87;8.10;;;;;;;;;;5011152;28;20498;-66
2021/12/27 05:30:15;;;;;;;11.37;8.93;;;;;;;;;;5001354;28;21116;-66
2021/12/27 05:32:44;;;;;;;9.67;7.87;;;;;;;;;;5004891;28;20448;-63
2021/12/27 05:35:13;;;;;;;10.60;8.53;;;;;;;;;;5002058;28;20213;-64
2021/12/27 05:37:42;;;;;;;11.10;8.87;;;;;;;;;;5002709;28;20308;-64
2021/12/27 05:40:13;;;;;;;11.23;8.17;;;;;;;;;;5001781;28;20444;-65
2021/12/27 05:42:41;;;;;;;9.40;8.13;;;;;;;;;;5002626;28;20672;-63
2021/12/27 05:45:10;;;;;;;13.33;8.30;;;;;;;;;;5001539;28;20448;-64
2021/12/27 05:47:38;;;;;;;11.17;8.57;;;;;;;;;;5002111;28;20525;-63
2021/12/27 05:50:06;;;;;;;11.23;8.93;;;;;;;;;;5002041;28;20466;-63
2021/12/27 05:52:34;;;;;;;11.57;8.57;;;;;;;;;;5001285;28;20551;-64
2021/12/27 05:55:03;;;;;;;13.57;8.87;;;;;;;;;;5002655;28;20512;-64
2021/12/27 05:57:32;;;;;;;12.17;8.20;;;;;;;;;;5001766;28;20825;-64
2021/12/27 06:00:00;;;;;;;12.20;8.40;;;;;;;;;;5002972;28;20450;-63
2021/12/27 06:02:28;;;;;;;11.53;8.80;;;;;;;;;;5000644;28;20527;-63
2021/12/27 06:04:56;;;;;;;10.03;8.27;;;;;;;;;;5001878;28;20455;-63
2021/12/27 06:07:24;;;;;;;14.67;8.70;;;;;;;;;;4998891;28;20565;-65
2021/12/27 06:09:52;;;;;;;9.83;7.90;;;;;;;;;;5013272;28;20443;-66
2021/12/27 06:12:20;;;;;;;11.47;7.80;;;;;;;;;;5013780;28;20451;-66
2021/12/27 06:14:49;;;;;;;10.93;8.47;;;;;;;;;;5013446;28;21185;-66
2021/12/27 06:17:17;;;;;;;12.27;8.30;;;;;;;;;;5003522;28;20472;-67
2021/12/27 06:19:45;;;;;;;11.83;8.90;;;;;;;;;;5003718;28;20440;-66
2021/12/27 06:22:13;;;;;;;11.87;8.00;;;;;;;;;;5000475;28;20448;-66
2021/12/27 06:24:41;;;;;;;11.43;8.50;;;;;;;;;;5008552;28;20204;-66
2021/12/27 06:27:09;;;;;;;10.20;7.87;;;;;;;;;;5001833;28;20228;-66
2021/12/27 06:29:37;;;;;;;9.43;7.80;;;;;;;;;;5002193;28;20200;-66
2021/12/27 06:32:13;;;;;;;9.00;7.33;;;;;;;;;;5006017;28;20593;-66
2021/12/27 06:34:41;;;;;;;11.70;8.17;;;;;;;;;;5003614;28;20200;-66
2021/12/27 06:37:09;;;;;;;11.50;7.83;;;;;;;;;;5001095;28;20224;-66
2021/12/27 06:39:37;;;;;;;11.27;7.33;;;;;;;;;;5003679;28;20682;-66
2021/12/27 06:42:05;;;;;;;9.00;7.60;;;;;;;;;;4997935;28;20563;-66
2021/12/27 06:44:34;;;;;;;10.30;7.90;;;;;;;;;;5000065;28;20238;-67
2021/12/27 06:47:02;;;;;;;9.43;7.63;;;;;;;;;;5002237;28;20243;-66
2021/12/27 06:49:31;;;;;;;9.30;7.27;;;;;;;;;;5001910;28;20211;-67
2021/12/27 06:52:00;;;;;;;10.07;6.73;;;;;;;;;;5005200;28;20747;-66
2021/12/27 06:54:28;;;;;;;11.20;8.97;;;;;;;;;;5008380;28;20215;-66
2021/12/27 06:56:59;;;;;;;12.00;8.73;;;;;;;;;;5013643;28;20250;-65
2021/12/27 06:59:28;;;;;;;11.63;7.67;;;;;;;;;;5011747;28;20235;-66
2021/12/27 07:01:56;;;;;;;11.33;7.67;;;;;;;;;;5011717;28;20207;-66
2021/12/27 07:04:24;;;;;;;10.27;7.47;;;;;;;;;;5008813;28;20217;-66
2021/12/27 07:06:54;;;;;;;9.57;7.17;;;;;;;;;;5008084;28;20319;-65
2021/12/27 07:09:25;;;;;;;12.27;7.93;;;;;;;;;;5009346;28;20271;-65
2021/12/27 07:11:53;;;;;;;11.90;7.20;;;;;;;;;;5017306;28;20205;-65
2021/12/27 07:14:21;;;;;;;8.93;6.33;;;;;;;;;;5009291;28;20208;-66
2021/12/27 07:16:49;;;;;;;9.40;7.90;;;;;;;;;;5014313;28;20223;-65
2021/12/27 07:19:17;;;;;;;11.63;7.80;;;;;;;;;;5014283;28;20301;-66
2021/12/27 07:21:46;;;;;;;10.37;7.37;;;;;;;;;;5000386;28;20237;-66
2021/12/27 07:24:15;;;;;;;9.27;7.20;;;;;;;;;;5004143;28;20196;-66
2021/12/27 07:26:43;;;;;;;11.00;6.93;;;;;;;;;;5007520;28;20238;-66
2021/12/27 07:29:14;;;;;;;5.97;4.30;;;;;;;;;;5005008;28;20252;-66
2021/12/27 07:31:43;;;;;;;7.13;4.93;;;;;;;;;;5002557;28;20258;-67
2021/12/27 07:34:12;;;;;;;7.07;4.97;;;;;;;;;;5004614;28;20199;-66
2021/12/27 07:36:40;;;;;;;5.57;4.40;;;;;;;;;;5008032;28;20248;-66
2021/12/27 07:39:08;;;;;;;8.57;4.50;;;;;;;;;;5014758;28;20200;-67
2021/12/27 07:41:37;;;;;;;5.03;4.00;;;;;;;;;;5013345;28;20226;-66
2021/12/27 07:44:05;;;;;;;6.47;4.47;;;;;;;;;;5013738;28;20224;-66
2021/12/27 07:46:35;;;;;;;6.80;3.90;;;;;;;;;;5016459;28;20220;-66
2021/12/27 07:49:04;;;;;;;7.77;3.77;;;;;;;;;;5017707;28;20224;-69
2021/12/27 07:51:32;;;;;;;5.53;3.93;;;;;;;;;;5055968;28;20201;-69
2021/12/27 07:54:00;;;;;;;5.00;3.50;;;;;;;;;;5007909;28;20209;-68
2021/12/27 07:56:28;;;;;;;7.40;3.70;;;;;;;;;;5009434;28;20254;-69
2021/12/27 07:59:00;;;;;;;5.03;3.40;;;;;;;;;;5016981;28;20209;-69
2021/12/27 08:01:28;;;;;;;3.17;2.83;;;;;;;;;;5004529;28;20683;-68
2021/12/27 08:03:56;;;;;;;6.97;3.37;;;;;;;;;;4998824;28;20209;-68
2021/12/27 08:06:27;;;;;;;6.00;3.40;;;;;;;;;;5014279;28;20219;-68
2021/12/27 08:08:55;;;;;;;5.37;3.27;;;;;;;;;;5016700;28;20224;-67
2021/12/27 08:11:24;;;;;;;8.77;3.40;;;;;;;;;;5015590;28;20200;-68
2021/12/27 08:13:52;;;;;;;3.53;2.97;;;;;;;;;;5024152;28;20204;-68
2021/12/27 08:16:24;;;;;;;4.20;3.10;;;;;;;;;;5009983;28;20586;-69
2021/12/27 08:18:52;;;;;;;5.97;3.63;;;;;;;;;;5017185;28;20208;-68
2021/12/27 08:21:20;;;;;;;7.43;3.50;;;;;;;;;;5023624;28;20774;-68
2021/12/27 08:23:48;;;;;;;8.73;3.87;;;;;;;;;;5018566;28;20200;-68
2021/12/27 08:26:18;;;;;;;3.20;2.90;;;;;;;;;;5019055;28;20228;-68
2021/12/27 08:28:48;;;;;;;5.40;3.40;;;;;;;;;;5016910;28;20228;-68
2021/12/27 08:31:16;;;;;;;3.17;2.83;;;;;;;;;;5010738;28;20682;-68
2021/12/27 08:33:46;;;;;;;5.40;3.50;;;;;;;;;;4997570;28;20238;-68
2021/12/27 08:36:14;;;;;;;4.30;2.83;;;;;;;;;;5015951;28;20220;-68
2021/12/27 08:38:44;;;;;;;4.20;3.10;;;;;;;;;;5013631;28;20202;-69
2021/12/27 08:41:12;;;;;;;3.73;2.70;;;;;;;;;;5017639;28;20216;-68
2021/12/27 08:43:40;;;;;;;3.67;2.70;;;;;;;;;;5020531;28;20206;-68
2021/12/27 08:46:09;;;;;;;3.70;3.13;;;;;;;;;;5016136;28;20238;-67
2021/12/27 08:48:37;;;;;;;3.90;3.17;;;;;;;;;;5016096;28;20297;-67
2021/12/27 08:51:06;;;;;;;4.43;3.20;;;;;;;;;;5018002;28;20203;-68
2021/12/27 08:53:34;;;;;;;4.87;2.90;;;;;;;;;;5083439;28;20599;-68
2021/12/27 08:56:02;;;;;;;2.80;2.40;;;;;;;;;;5011912;28;20561;-68
2021/12/27 08:58:30;;;;;;;3.10;2.50;;;;;;;;;;5003928;28;20228;-67
2021/12/27 09:00:58;;;;;;;6.33;3.00;;;;;;;;;;4996850;28;20213;-67
2021/12/27 09:03:27;;;;;;;5.90;3.37;;;;;;;;;;4997078;28;20672;-68
2021/12/27 09:05:55;;;;;;;4.20;3.27;;;;;;;;;;5002654;28;20225;-68
2021/12/27 09:08:24;;;;;;;5.67;3.37;;;;;;;;;;5010929;28;20281;-68
2021/12/27 09:10:53;;;;;;;4.53;2.80;;;;;;;;;;4996754;28;20778;-68
2021/12/27 09:13:21;;;;;;;12.70;8.10;;;;;;;;;;4997103;28;20205;-68
2021/12/27 09:15:49;;;;;;;2.60;2.30;;;;;;;;;;4996748;28;20241;-68
2021/12/27 09:18:17;;;;;;;3.27;2.40;;;;;;;;;;5011966;28;20205;-68
2021/12/27 09:20:45;;;;;;;4.33;3.23;;;;;;;;;;5027719;28;20290;-67
2021/12/27 09:23:13;;;;;;;5.00;2.47;;;;;;;;;;4998049;28;20216;-68
2021/12/27 09:25:44;;;;;;;2.83;2.33;;;;;;;;;;5015405;28;20210;-67
2021/12/27 09:28:13;;;;;;;4.50;2.40;;;;;;;;;;5009629;28;20251;-68
2021/12/27 09:30:41;;;;;;;2.60;2.40;;;;;;;;;;5015054;28;20205;-67
2021/12/27 09:33:09;;;;;;;3.80;2.20;;;;;;;;;;5016164;28;20287;-68
2021/12/27 09:35:37;;;;;;;4.13;2.67;;;;;;;;;;5016082;28;20208;-68
2021/12/27 09:38:05;;;;;;;4.07;2.87;;;;;;;;;;5022917;28;20214;-68
2021/12/27 09:40:33;;;;;;;4.23;2.77;;;;;;;;;;5005789;28;20212;-66
2021/12/27 09:43:02;;;;;;;3.97;3.10;;;;;;;;;;5009297;28;20663;-68
2021/12/27 09:45:31;;;;;;;5.30;3.33;;;;;;;;;;5003791;28;20215;-69
2021/12/27 09:47:59;;;;;;;4.53;3.70;;;;;;;;;;4998554;28;20664;-67
2021/12/27 09:50:28;;;;;;;3.87;3.10;;;;;;;;;;5017797;28;20212;-67
2021/12/27 09:52:56;;;;;;;5.43;2.87;;;;;;;;;;5027054;28;20699;-66
2021/12/27 09:55:26;;;;;;;5.50;2.40;;;;;;;;;;5015910;28;20205;-69
2021/12/27 09:57:55;;;;;;;2.53;2.07;;;;;;;;;;5007304;28;20204;-68
2021/12/27 10:00:24;;;;;;;2.07;1.97;;;;;;;;;;5014370;28;20667;-68
2021/12/27 10:02:53;;;;;;;2.67;1.97;;;;;;;;;;5015689;28;20734;-69
2021/12/27 10:05:22;;;;;;;4.10;2.00;;;;;;;;;;5016793;28;20211;-67
2021/12/27 10:07:50;;;;;;;3.57;2.13;;;;;;;;;;5014107;28;20235;-67
2021/12/27 10:10:31;;;;;;;2.00;1.90;;;;;;;;;;5014663;28;20288;-68
2021/12/27 10:12:59;;;;;;;2.77;2.30;;;;;;;;;;5018738;28;20204;-67
2021/12/27 10:15:35;;;;;;;3.23;1.90;;;;;;;;;;5015357;28;20214;-69
2021/12/27 10:18:10;;;;;;;2.90;2.20;;;;;;;;;;5015293;28;20212;-68
2021/12/27 10:20:38;;;;;;;1.50;1.40;;;;;;;;;;5013631;28;20646;-68
2021/12/27 10:23:07;;;;;;;3.30;2.00;;;;;;;;;;5016105;28;20209;-68
2021/12/27 10:25:35;;;;;;;3.27;1.83;;;;;;;;;;5005185;28;20231;-68
2021/12/27 10:28:03;;;;;;;2.27;1.90;;;;;;;;;;4995637;28;20208;-68
2021/12/27 10:30:32;;;;;;;2.33;1.90;;;;;;;;;;4995772;28;20232;-68
2021/12/27 10:33:06;;;;;;;1.57;1.33;;;;;;;;;;4995612;28;20231;-68
2021/12/27 10:35:35;;;;;;;1.70;1.60;;;;;;;;;;5011957;28;20690;-68
2021/12/27 10:38:12;;;;;;;3.50;1.70;;;;;;;;;;4994867;28;20215;-67
2021/12/27 10:40:47;;;;;;;2.27;2.07;;;;;;;;;;4993881;28;20209;-69
2021/12/27 10:43:17;;;;;;;1.90;1.80;;;;;;;;;;4993782;28;20208;-68
2021/12/27 10:45:46;;;;;;;2.20;2.00;;;;;;;;;;4999782;28;20209;-68
2021/12/27 10:48:22;;;;;;;3.57;1.83;;;;;;;;;;5026782;28;20212;-68
2021/12/27 10:50:50;;;;;;;1.50;1.40;;;;;;;;;;5000072;28;20228;-68
2021/12/27 10:53:18;;;;;;;1.77;1.20;;;;;;;;;;4995466;28;20243;-67
2021/12/27 10:55:48;;;;;;;4.27;1.80;;;;;;;;;;5013182;28;20201;-67
2021/12/27 10:58:20;;;;;;;2.40;1.50;;;;;;;;;;5015433;28;20215;-69
2021/12/27 11:00:49;;;;;;;2.47;1.43;;;;;;;;;;5014672;28;20685;-68
2021/12/27 11:03:30;;;;;;;1.67;1.57;;;;;;;;;;5014622;28;20212;-67
2021/12/27 11:05:59;;;;;;;1.80;1.60;;;;;;;;;;5014569;28;20239;-69
2021/12/27 11:08:27;;;;;;;1.83;1.33;;;;;;;;;;5014586;28;20584;-69
2021/12/27 11:10:56;;;;;;;1.60;1.40;;;;;;;;;;5015453;28;20273;-66
2021/12/27 11:13:24;;;;;;;1.60;1.43;;;;;;;;;;5021291;28;20247;-69
2021/12/27 11:15:52;;;;;;;2.40;2.20;;;;;;;;;;5024455;28;20219;-68
2021/12/27 11:18:20;;;;;;;1.40;1.37;;;;;;;;;;5008621;28;20583;-68
2021/12/27 11:20:51;;;;;;;1.77;1.40;;;;;;;;;;5018477;28;20643;-69
2021/12/27 11:23:21;;;;;;;1.40;1.30;;;;;;;;;;5006502;28;20671;-68
2021/12/27 11:25:49;;;;;;;1.47;1.37;;;;;;;;;;5011583;28;20224;-68
2021/12/27 11:28:29;;;;;;;1.67;1.53;;;;;;;;;;5005002;28;20209;-67
2021/12/27 11:31:04;;;;;;;1.83;1.73;;;;;;;;;;4998249;28;20320;-66
2021/12/27 11:33:34;;;;;;;1.90;1.17;;;;;;;;;;4998224;28;20216;-66
2021/12/27 11:36:08;;;;;;;2.10;1.60;;;;;;;;;;4998056;28;20239;-66
2021/12/27 11:38:37;;;;;;;3.33;1.90;;;;;;;;;;4998210;28;20582;-67
2021/12/27 11:41:06;;;;;;;2.33;2.13;;;;;;;;;;4999779;28;20292;-66
2021/12/27 11:43:58;;;;;;;3.00;1.90;;;;;;;;;;5016510;28;20660;-67
2021/12/27 11:46:27;;;;;;;2.20;2.00;;;;;;;;;;4983118;28;20225;-68
2021/12/27 11:48:56;;;;;;;1.83;1.60;;;;;;;;;;4998160;28;20582;-68
2021/12/27 11:51:34;;;;;;;2.20;2.00;;;;;;;;;;5006287;28;20223;-66
2021/12/27 11:54:02;;;;;;;3.50;1.73;;;;;;;;;;5009320;28;20240;-67
2021/12/27 11:56:51;;;;;;;3.27;2.20;;;;;;;;;;5014046;28;20234;-68
2021/12/27 11:59:36;;;;;;;4.17;3.17;;;;;;;;;;5013021;28;20204;-68
2021/12/27 12:02:19;;;;;;;4.67;3.77;;;;;;;;;;5017681;28;20291;-68
2021/12/27 12:04:48;;;;;;;6.20;5.43;;;;;;;;;;5017392;28;20204;-67
2021/12/27 12:07:31;;;;;;;8.10;7.30;;;;;;;;;;5031053;28;20606;-68
2021/12/27 12:10:00;;;;;;;7.13;6.43;;;;;;;;;;5008594;28;20228;-66
2021/12/27 12:12:29;;;;;;;8.20;7.20;;;;;;;;;;5027892;28;20210;-68
2021/12/27 12:15:07;;;;;;;9.00;5.27;;;;;;;;;;5017800;28;20575;-68
2021/12/27 12:17:39;;;;;;;6.63;5.00;;;;;;;;;;5016927;28;20228;-68
2021/12/27 12:20:07;;;;;;;6.03;4.37;;;;;;;;;;5017479;28;20261;-67
2021/12/27 12:22:37;;;;;;;5.17;3.37;;;;;;;;;;5028920;28;20207;-68
2021/12/27 12:25:14;;;;;;;2.93;2.53;;;;;;;;;;4997253;28;20767;-67
2021/12/27 12:28:06;;;;;;;3.23;2.97;;;;;;;;;;5012330;28;20237;-66
2021/12/27 12:30:34;;;;;;;2.93;2.73;;;;;;;;;;5002386;28;20690;-68
2021/12/27 12:33:04;;;;;;;3.97;3.13;;;;;;;;;;5017068;28;20204;-68
2021/12/27 12:35:37;;;;;;;3.23;2.83;;;;;;;;;;5016448;28;20643;-66
2021/12/27 12:38:16;;;;;;;2.80;2.50;;;;;;;;;;5017262;28;20204;-67
2021/12/27 12:40:45;;;;;;;2.67;2.40;;;;;;;;;;5021232;28;20202;-69
2021/12/27 12:43:30;;;;;;;2.90;2.20;;;;;;;;;;5010600;28;20209;-68
2021/12/27 12:45:59;;;;;;;2.77;2.47;;;;;;;;;;5006132;28;20224;-69
2021/12/27 12:48:27;;;;;;;2.50;2.30;;;;;;;;;;5016639;28;20578;-68
2021/12/27 12:50:55;;;;;;;3.17;2.70;;;;;;;;;;5027437;28;20223;-68
2021/12/27 12:53:30;;;;;;;2.20;2.00;;;;;;;;;;5022142;28;20236;-67
2021/12/27 12:56:01;;;;;;;2.57;2.30;;;;;;;;;;5002084;28;20230;-66
2021/12/27 12:58:33;;;;;;;3.60;2.50;;;;;;;;;;5023018;28;20209;-67
2021/12/27 13:01:05;;;;;;;2.60;2.40;;;;;;;;;;5003348;28;20202;-67
2021/12/27 13:03:33;;;;;;;3.47;2.17;;;;;;;;;;5010081;28;20213;-67
2021/12/27 13:06:03;;;;;;;2.60;2.40;;;;;;;;;;4997124;28;20231;-68
2021/12/27 13:08:31;;;;;;;2.53;2.33;;;;;;;;;;5022736;28;20237;-69
2021/12/27 13:11:01;;;;;;;3.27;1.93;;;;;;;;;;5005805;28;20683;-68
2021/12/27 13:13:32;;;;;;;2.83;1.90;;;;;;;;;;5010814;28;20739;-67
2021/12/27 13:16:00;;;;;;;2.03;1.90;;;;;;;;;;5016098;28;20264;-68
2021/12/27 13:18:29;;;;;;;1.57;1.53;;;;;;;;;;5016240;28;20205;-69
2021/12/27 13:20:58;;;;;;;4.00;1.87;;;;;;;;;;5016658;28;20204;-69
2021/12/27 13:23:27;;;;;;;4.03;1.90;;;;;;;;;;5028629;28;20203;-68
2021/12/27 13:25:55;;;;;;;3.60;2.00;;;;;;;;;;5004795;28;20654;-67
2021/12/27 13:28:24;;;;;;;2.80;1.50;;;;;;;;;;5015753;28;20208;-67
2021/12/27 13:30:55;;;;;;;1.93;1.80;;;;;;;;;;5016000;28;20236;-69
2021/12/27 13:33:24;;;;;;;1.60;1.50;;;;;;;;;;5024695;28;20208;-67
2021/12/27 13:35:55;;;;;;;2.93;1.63;;;;;;;;;;4997480;28;20225;-69
2021/12/27 13:38:24;;;;;;;1.80;1.70;;;;;;;;;;5006674;28;20287;-67
2021/12/27 13:40:53;;;;;;;2.43;1.60;;;;;;;;;;5010882;28;20216;-67
2021/12/27 13:43:21;;;;;;;1.57;1.47;;;;;;;;;;4996580;28;20209;-67
2021/12/27 13:45:49;;;;;;;2.07;1.50;;;;;;;;;;4996842;28;20244;-67
2021/12/27 13:48:28;;;;;;;1.67;1.40;;;;;;;;;;5003592;28;20240;-67
2021/12/27 13:50:57;;;;;;;1.60;1.50;;;;;;;;;;5015640;28;20598;-69
2021/12/27 13:53:25;;;;;;;2.20;1.60;;;;;;;;;;5025011;28;20323;-69
2021/12/27 13:55:53;;;;;;;1.93;1.73;;;;;;;;;;5000450;28;20231;-69
2021/12/27 13:58:22;;;;;;;1.70;1.60;;;;;;;;;;5018623;28;20704;-69
2021/12/27 14:00:54;;;;;;;1.83;1.53;;;;;;;;;;4996043;28;20219;-69
2021/12/27 14:03:28;;;;;;;1.67;1.43;;;;;;;;;;4996227;28;20212;-69
2021/12/27 14:05:57;;;;;;;2.10;1.57;;;;;;;;;;4996017;28;20270;-68
2021/12/27 14:08:27;;;;;;;2.93;2.70;;;;;;;;;;5013243;28;20220;-68
2021/12/27 14:11:06;;;;;;;2.00;1.80;;;;;;;;;;5024824;28;20695;-68
2021/12/27 14:13:49;;;;;;;1.70;1.20;;;;;;;;;;5023333;28;20231;-68
2021/12/27 14:16:18;;;;;;;1.83;1.67;;;;;;;;;;5015419;28;20594;-68
2021/12/27 14:19:01;;;;;;;1.53;1.43;;;;;;;;;;5015261;28;20208;-68
2021/12/27 14:21:29;;;;;;;1.80;1.70;;;;;;;;;;5015311;28;20200;-68
2021/12/27 14:24:04;;;;;;;1.57;1.47;;;;;;;;;;5026063;28;20213;-69
2021/12/27 14:26:32;;;;;;;2.30;1.50;;;;;;;;;;5005954;28;20223;-68
2021/12/27 14:29:16;;;;;;;1.07;1.07;;;;;;;;;;4997329;28;20220;-68
2021/12/27 14:31:47;;;;;;;1.60;1.50;;;;;;;;;;4995851;28;20233;-68
2021/12/27 14:34:34;;;;;;;1.60;1.50;;;;;;;;;;4995915;28;20213;-68
2021/12/27 14:37:02;;;;;;;1.83;1.40;;;;;;;;;;4995220;28;20735;-68
2021/12/27 14:39:30;;;;;;;1.90;1.80;;;;;;;;;;5020373;28;20200;-68
2021/12/27 14:41:58;;;;;;;3.03;1.93;;;;;;;;;;5021213;28;20687;-68
2021/12/27 14:44:26;;;;;;;2.00;1.90;;;;;;;;;;4993502;28;20209;-68
2021/12/27 14:46:54;;;;;;;2.43;1.83;;;;;;;;;;4993095;28;20245;-68
2021/12/27 14:49:24;;;;;;;2.03;1.77;;;;;;;;;;4993559;28;20213;-68
2021/12/27 14:51:52;;;;;;;3.33;1.70;;;;;;;;;;5000324;28;20571;-68